createdAt,value
2023-04-24T00:05:56.744Z,12.70
2023-04-24T00:18:56.747Z,12.40
2023-04-24T00:31:56.814Z,11.90
2023-04-24T00:44:56.774Z,11.60
2023-04-24T00:57:56.762Z,11.00
2023-04-24T01:10:56.797Z,10.90
2023-04-24T01:23:56.782Z,10.70
2023-04-24T01:36:56.788Z,10.50
2023-04-24T01:49:56.788Z,10.20
2023-04-24T02:02:56.884Z,9.90
2023-04-24T02:15:56.809Z,9.90
2023-04-24T02:28:56.795Z,9.50
2023-04-24T02:41:56.821Z,9.20
2023-04-24T02:54:56.814Z,9.10
2023-04-24T03:07:56.818Z,8.60
2023-04-24T03:20:56.819Z,8.80
2023-04-24T03:33:56.827Z,8.60
2023-04-24T03:46:56.834Z,8.30
2023-04-24T03:59:56.833Z,7.95
2023-04-24T04:12:56.834Z,7.35
2023-04-24T04:25:56.832Z,7.80
2023-04-24T04:39:56.834Z,7.40
2023-04-24T04:53:56.856Z,7.00
2023-04-24T05:07:56.864Z,7.90
2023-04-24T05:21:57.065Z,7.20
2023-04-24T05:36:56.896Z,7.40
2023-04-24T05:50:56.896Z,7.50
2023-04-24T06:04:56.974Z,9.70
2023-04-24T06:18:56.892Z,10.50
2023-04-24T06:33:02.954Z,10.50
2023-04-24T06:46:56.906Z,10.70
2023-04-24T07:00:56.955Z,10.75
2023-04-24T07:14:56.917Z,10.10
2023-04-24T07:28:56.926Z,9.60
2023-04-24T07:39:56.960Z,9.70
2023-04-24T07:53:56.940Z,9.50
2023-04-24T08:07:56.939Z,9.10
2023-04-24T08:21:56.931Z,8.40
2023-04-24T08:35:56.954Z,7.70
2023-04-24T08:49:56.953Z,7.60
2023-04-24T09:03:57.070Z,6.80
2023-04-24T09:17:56.973Z,7.10
2023-04-24T09:31:57.028Z,6.40
2023-04-24T09:45:58.083Z,6.00
2023-04-24T09:59:56.959Z,5.70
2023-04-24T10:11:56.973Z,5.30
2023-04-24T10:25:57.015Z,4.80
2023-04-24T10:39:56.979Z,5.10
2023-04-24T10:52:56.991Z,4.50
2023-04-24T11:06:57.005Z,3.90
2023-04-24T11:20:57.024Z,3.50
2023-04-24T11:34:57.052Z,3.70
2023-04-24T11:46:57.002Z,3.50
2023-04-24T11:57:57.026Z,3.35
2023-04-24T12:09:01.712Z,3.10
2023-04-24T12:22:57.065Z,3.00
2023-04-24T12:35:57.050Z,3.10
2023-04-24T12:47:57.057Z,2.80
2023-04-24T13:01:57.052Z,2.50
2023-04-24T13:15:57.047Z,2.50
2023-04-24T13:29:57.051Z,2.80
2023-04-24T13:40:57.041Z,2.50
2023-04-24T13:51:57.059Z,2.40
2023-04-24T14:05:57.069Z,2.20
2023-04-24T14:19:57.085Z,2.30
2023-04-24T14:33:57.070Z,1.90
2023-04-24T14:44:57.075Z,2.00
2023-04-24T14:55:57.078Z,2.00
2023-04-24T15:09:57.111Z,1.90
2023-04-24T15:20:57.091Z,1.85
2023-04-24T15:31:57.212Z,1.80
2023-04-24T15:42:57.092Z,1.90
2023-04-24T15:53:57.106Z,1.70
2023-04-24T16:04:57.251Z,1.80
2023-04-24T16:15:57.132Z,1.90
2023-04-24T16:29:57.315Z,1.80
2023-04-24T16:40:57.111Z,1.70
2023-04-24T16:51:57.121Z,1.80
2023-04-24T17:02:57.221Z,1.90
2023-04-24T17:13:57.133Z,1.80
2023-04-24T17:24:57.330Z,1.80
2023-04-24T17:36:57.138Z,1.70
2023-04-24T17:47:57.146Z,2.20
2023-04-24T17:58:57.140Z,1.80
2023-04-24T18:09:57.143Z,1.80
2023-04-24T18:20:57.130Z,1.90
2023-04-24T18:31:57.168Z,1.80
2023-04-24T18:42:57.162Z,1.70
2023-04-24T18:52:57.167Z,1.90
2023-04-24T19:02:57.242Z,1.70
2023-04-24T19:12:57.171Z,2.70
2023-04-24T19:22:57.170Z,2.80
2023-04-24T19:32:57.181Z,3.20
2023-04-24T19:42:57.171Z,2.90
2023-04-24T19:52:57.181Z,3.50
2023-04-24T20:02:57.276Z,3.80
2023-04-24T20:12:57.182Z,3.50
2023-04-24T20:22:57.181Z,3.40
2023-04-24T20:32:57.208Z,3.50
2023-04-24T20:42:57.180Z,3.50
2023-04-24T20:52:57.220Z,3.10
2023-04-24T21:02:57.245Z,2.85
2023-04-24T21:12:57.217Z,3.00
2023-04-24T21:22:57.211Z,2.80
2023-04-24T21:32:57.252Z,3.00
2023-04-24T21:45:57.234Z,2.60
2023-04-24T21:55:57.218Z,2.30
2023-04-24T22:08:57.210Z,2.20
2023-04-24T22:18:57.232Z,2.20
2023-04-24T22:28:57.239Z,2.40
2023-04-24T22:38:57.221Z,2.00
2023-04-24T22:48:57.292Z,2.10
2023-04-24T23:01:57.266Z,2.00
2023-04-24T23:14:57.250Z,2.00
2023-04-24T23:27:57.282Z,1.80
2023-04-24T23:40:57.285Z,1.70
2023-04-24T23:53:57.279Z,1.65
